sensor_id;sensor_type;location;lat;lon;timestamp;pressure;altitude;pressure_sealevel;temperature;humidity
44103;BME280;29769;42.178;24.742;2023-09-07T00:02:39;100046.97;;;21.01;100.00
44103;BME280;29769;42.178;24.742;2023-09-07T00:05:24;100039.56;;;21.06;100.00
44103;BME280;29769;42.178;24.742;2023-09-07T00:08:09;100040.34;;;21.08;100.00
44103;BME280;29769;42.178;24.742;2023-09-07T00:10:53;100042.13;;;21.08;100.00
44103;BME280;29769;42.178;24.742;2023-09-07T00:13:38;100038.78;;;21.04;100.00
44103;BME280;29769;42.178;24.742;2023-09-07T00:16:23;100045.84;;;21.05;100.00
44103;BME280;29769;42.178;24.742;2023-09-07T00:19:08;100049.16;;;21.10;100.00
44103;BME280;29769;42.178;24.742;2023-09-07T00:21:52;100049.34;;;21.07;100.00
44103;BME280;29769;42.178;24.742;2023-09-07T00:24:37;100045.94;;;21.04;100.00
44103;BME280;29769;42.178;24.742;2023-09-07T00:27:21;100052.94;;;21.06;100.00
44103;BME280;29769;42.178;24.742;2023-09-07T00:30:06;100053.00;;;21.05;100.00
44103;BME280;29769;42.178;24.742;2023-09-07T00:32:53;100049.09;;;21.12;100.00
44103;BME280;29769;42.178;24.742;2023-09-07T00:35:38;100050.69;;;21.16;100.00
44103;BME280;29769;42.178;24.742;2023-09-07T00:38:22;100044.91;;;21.06;100.00
44103;BME280;29769;42.178;24.742;2023-09-07T00:41:07;100046.16;;;20.99;100.00
44103;BME280;29769;42.178;24.742;2023-09-07T00:43:51;100051.75;;;20.95;100.00
44103;BME280;29769;42.178;24.742;2023-09-07T00:46:36;100049.41;;;20.89;100.00
44103;BME280;29769;42.178;24.742;2023-09-07T00:49:21;100051.28;;;20.86;100.00
44103;BME280;29769;42.178;24.742;2023-09-07T00:52:06;100053.03;;;20.88;100.00
44103;BME280;29769;42.178;24.742;2023-09-07T00:54:52;100054.59;;;20.92;100.00
44103;BME280;29769;42.178;24.742;2023-09-07T00:57:37;100050.06;;;20.94;100.00
44103;BME280;29769;42.178;24.742;2023-09-07T01:00:24;100043.84;;;20.93;100.00
44103;BME280;29769;42.178;24.742;2023-09-07T01:03:08;100044.72;;;20.94;100.00
44103;BME280;29769;42.178;24.742;2023-09-07T01:08:51;100037.38;;;20.97;100.00
44103;BME280;29769;42.178;24.742;2023-09-07T01:11:41;100033.84;;;20.97;100.00
44103;BME280;29769;42.178;24.742;2023-09-07T01:14:26;100032.72;;;21.01;100.00
44103;BME280;29769;42.178;24.742;2023-09-07T01:17:11;100035.41;;;21.01;100.00
44103;BME280;29769;42.178;24.742;2023-09-07T01:19:56;100031.84;;;21.00;100.00
44103;BME280;29769;42.178;24.742;2023-09-07T01:22:43;100035.16;;;21.05;100.00
44103;BME280;29769;42.178;24.742;2023-09-07T01:25:28;100030.13;;;20.99;100.00
44103;BME280;29769;42.178;24.742;2023-09-07T01:28:13;100025.09;;;20.76;100.00
44103;BME280;29769;42.178;24.742;2023-09-07T01:30:59;100023.78;;;20.67;100.00
44103;BME280;29769;42.178;24.742;2023-09-07T01:33:45;100021.50;;;20.60;100.00
44103;BME280;29769;42.178;24.742;2023-09-07T01:36:30;100032.25;;;20.58;100.00
44103;BME280;29769;42.178;24.742;2023-09-07T01:39:15;100029.56;;;20.41;100.00
44103;BME280;29769;42.178;24.742;2023-09-07T01:42:01;100026.00;;;20.23;100.00
44103;BME280;29769;42.178;24.742;2023-09-07T01:44:46;100028.63;;;20.06;100.00
44103;BME280;29769;42.178;24.742;2023-09-07T01:47:31;100035.13;;;20.01;100.00
44103;BME280;29769;42.178;24.742;2023-09-07T01:50:15;100042.59;;;19.94;100.00
44103;BME280;29769;42.178;24.742;2023-09-07T01:53:00;100037.38;;;19.72;100.00
44103;BME280;29769;42.178;24.742;2023-09-07T01:55:44;100037.03;;;19.61;100.00
44103;BME280;29769;42.178;24.742;2023-09-07T01:58:29;100037.50;;;19.50;100.00
44103;BME280;29769;42.178;24.742;2023-09-07T02:01:27;100034.47;;;19.39;100.00
44103;BME280;29769;42.178;24.742;2023-09-07T02:04:13;100040.22;;;19.30;100.00
44103;BME280;29769;42.178;24.742;2023-09-07T02:06:58;100036.94;;;19.24;100.00
44103;BME280;29769;42.178;24.742;2023-09-07T02:09:43;100039.66;;;19.22;100.00
44103;BME280;29769;42.178;24.742;2023-09-07T02:12:28;100035.28;;;19.21;100.00
44103;BME280;29769;42.178;24.742;2023-09-07T02:15:13;100036.28;;;19.19;100.00
44103;BME280;29769;42.178;24.742;2023-09-07T02:17:57;100035.03;;;19.07;100.00
44103;BME280;29769;42.178;24.742;2023-09-07T02:20:42;100040.78;;;18.98;100.00
44103;BME280;29769;42.178;24.742;2023-09-07T02:23:26;100041.75;;;18.95;100.00
44103;BME280;29769;42.178;24.742;2023-09-07T02:26:11;100041.97;;;18.91;100.00
44103;BME280;29769;42.178;24.742;2023-09-07T02:28:56;100046.72;;;18.84;100.00
44103;BME280;29769;42.178;24.742;2023-09-07T02:31:40;100048.50;;;18.84;100.00
44103;BME280;29769;42.178;24.742;2023-09-07T02:34:26;100046.56;;;18.87;100.00
44103;BME280;29769;42.178;24.742;2023-09-07T02:37:11;100042.31;;;18.83;100.00
44103;BME280;29769;42.178;24.742;2023-09-07T02:39:55;100037.84;;;18.84;100.00
44103;BME280;29769;42.178;24.742;2023-09-07T02:42:40;100038.72;;;18.84;100.00
44103;BME280;29769;42.178;24.742;2023-09-07T02:45:24;100039.03;;;18.77;100.00
44103;BME280;29769;42.178;24.742;2023-09-07T02:48:09;100036.66;;;18.71;100.00
44103;BME280;29769;42.178;24.742;2023-09-07T02:50:56;100035.97;;;18.65;100.00
44103;BME280;29769;42.178;24.742;2023-09-07T02:53:43;100036.03;;;18.64;100.00
44103;BME280;29769;42.178;24.742;2023-09-07T02:56:28;100034.22;;;18.64;100.00
44103;BME280;29769;42.178;24.742;2023-09-07T02:59:12;100032.59;;;18.62;100.00
44103;BME280;29769;42.178;24.742;2023-09-07T03:01:57;100033.31;;;18.65;100.00
44103;BME280;29769;42.178;24.742;2023-09-07T03:04:42;100042.03;;;18.69;100.00
44103;BME280;29769;42.178;24.742;2023-09-07T03:07:26;100039.38;;;18.69;100.00
44103;BME280;29769;42.178;24.742;2023-09-07T03:10:11;100043.81;;;18.69;100.00
44103;BME280;29769;42.178;24.742;2023-09-07T03:12:56;100054.69;;;18.64;100.00
44103;BME280;29769;42.178;24.742;2023-09-07T03:15:40;100046.81;;;18.61;100.00
44103;BME280;29769;42.178;24.742;2023-09-07T03:18:29;100004.28;;;18.38;100.00
44103;BME280;29769;42.178;24.742;2023-09-07T03:21:14;100052.34;;;18.56;100.00
44103;BME280;29769;42.178;24.742;2023-09-07T03:23:59;100056.81;;;18.56;100.00
44103;BME280;29769;42.178;24.742;2023-09-07T03:26:44;100055.00;;;18.56;100.00
44103;BME280;29769;42.178;24.742;2023-09-07T03:29:29;100050.59;;;18.55;100.00
44103;BME280;29769;42.178;24.742;2023-09-07T03:32:14;100047.81;;;18.58;100.00
44103;BME280;29769;42.178;24.742;2023-09-07T03:34:59;100056.81;;;18.56;100.00
44103;BME280;29769;42.178;24.742;2023-09-07T03:37:47;100056.94;;;18.53;100.00
44103;BME280;29769;42.178;24.742;2023-09-07T03:40:32;100058.75;;;18.51;100.00
44103;BME280;29769;42.178;24.742;2023-09-07T03:43:17;100058.75;;;18.51;100.00
44103;BME280;29769;42.178;24.742;2023-09-07T03:46:01;100064.22;;;18.48;100.00
44103;BME280;29769;42.178;24.742;2023-09-07T03:48:47;100063.16;;;18.52;100.00
44103;BME280;29769;42.178;24.742;2023-09-07T03:51:31;100067.41;;;18.57;100.00
44103;BME280;29769;42.178;24.742;2023-09-07T03:54:16;100070.06;;;18.57;100.00
44103;BME280;29769;42.178;24.742;2023-09-07T03:57:01;100073.28;;;18.65;100.00
44103;BME280;29769;42.178;24.742;2023-09-07T03:59:48;100072.59;;;18.60;100.00
44103;BME280;29769;42.178;24.742;2023-09-07T04:02:33;100071.06;;;18.55;100.00
44103;BME280;29769;42.178;24.742;2023-09-07T04:05:18;100076.88;;;18.64;100.00
44103;BME280;29769;42.178;24.742;2023-09-07T04:08:04;100073.00;;;18.50;100.00
44103;BME280;29769;42.178;24.742;2023-09-07T04:10:48;100077.19;;;18.57;100.00
44103;BME280;29769;42.178;24.742;2023-09-07T04:13:35;100072.28;;;18.46;100.00
44103;BME280;29769;42.178;24.742;2023-09-07T04:16:20;100080.22;;;18.48;100.00
44103;BME280;29769;42.178;24.742;2023-09-07T04:19:04;100083.13;;;18.42;100.00
44103;BME280;29769;42.178;24.742;2023-09-07T04:21:49;100074.94;;;18.46;100.00
44103;BME280;29769;42.178;24.742;2023-09-07T04:24:34;100083.41;;;18.57;100.00
44103;BME280;29769;42.178;24.742;2023-09-07T04:27:20;100076.47;;;18.52;100.00
44103;BME280;29769;42.178;24.742;2023-09-07T04:30:05;100091.78;;;18.69;100.00
44103;BME280;29769;42.178;24.742;2023-09-07T04:32:50;100074.59;;;18.55;100.00
44103;BME280;29769;42.178;24.742;2023-09-07T04:35:35;100078.53;;;18.67;100.00
44103;BME280;29769;42.178;24.742;2023-09-07T04:38:20;100085.16;;;18.79;100.00
44103;BME280;29769;42.178;24.742;2023-09-07T04:41:05;100080.16;;;18.71;100.00
44103;BME280;29769;42.178;24.742;2023-09-07T04:43:50;100094.34;;;18.92;100.00
44103;BME280;29769;42.178;24.742;2023-09-07T04:46:34;100094.97;;;18.98;100.00
44103;BME280;29769;42.178;24.742;2023-09-07T04:49:19;100099.69;;;19.12;100.00
44103;BME280;29769;42.178;24.742;2023-09-07T04:52:04;100099.00;;;19.27;100.00
44103;BME280;29769;42.178;24.742;2023-09-07T04:54:49;100092.59;;;19.31;100.00
44103;BME280;29769;42.178;24.742;2023-09-07T04:57:35;100101.16;;;19.39;100.00
44103;BME280;29769;42.178;24.742;2023-09-07T05:00:20;100099.34;;;19.60;100.00
44103;BME280;29769;42.178;24.742;2023-09-07T05:03:06;100092.44;;;19.75;100.00
44103;BME280;29769;42.178;24.742;2023-09-07T05:05:52;100093.53;;;19.89;100.00
44103;BME280;29769;42.178;24.742;2023-09-07T05:08:37;100103.34;;;20.08;100.00
44103;BME280;29769;42.178;24.742;2023-09-07T05:11:22;100104.72;;;20.35;100.00
44103;BME280;29769;42.178;24.742;2023-09-07T05:14:07;100106.84;;;20.46;100.00
44103;BME280;29769;42.178;24.742;2023-09-07T05:16:51;100103.81;;;20.53;100.00
44103;BME280;29769;42.178;24.742;2023-09-07T05:19:37;100101.69;;;20.60;100.00
44103;BME280;29769;42.178;24.742;2023-09-07T05:22:21;100111.47;;;20.78;100.00
44103;BME280;29769;42.178;24.742;2023-09-07T05:25:06;100108.88;;;21.28;100.00
44103;BME280;29769;42.178;24.742;2023-09-07T05:27:52;100109.66;;;21.47;100.00
44103;BME280;29769;42.178;24.742;2023-09-07T05:30:36;100103.69;;;21.75;100.00
44103;BME280;29769;42.178;24.742;2023-09-07T05:33:21;100113.28;;;21.79;100.00
44103;BME280;29769;42.178;24.742;2023-09-07T05:36:06;100110.00;;;21.90;100.00
44103;BME280;29769;42.178;24.742;2023-09-07T05:38:50;100116.72;;;21.98;100.00
44103;BME280;29769;42.178;24.742;2023-09-07T05:41:35;100111.97;;;21.86;100.00
44103;BME280;29769;42.178;24.742;2023-09-07T05:44:20;100100.88;;;22.09;100.00
44103;BME280;29769;42.178;24.742;2023-09-07T05:47:05;100112.28;;;22.44;100.00
44103;BME280;29769;42.178;24.742;2023-09-07T05:49:49;100104.84;;;22.65;100.00
44103;BME280;29769;42.178;24.742;2023-09-07T05:52:34;100110.19;;;23.11;100.00
44103;BME280;29769;42.178;24.742;2023-09-07T05:55:19;100102.94;;;23.41;100.00
44103;BME280;29769;42.178;24.742;2023-09-07T05:58:04;100103.31;;;23.35;100.00
44103;BME280;29769;42.178;24.742;2023-09-07T06:00:50;100093.13;;;23.56;100.00
44103;BME280;29769;42.178;24.742;2023-09-07T06:03:35;100090.38;;;24.12;100.00
44103;BME280;29769;42.178;24.742;2023-09-07T06:06:20;100088.75;;;24.77;100.00
44103;BME280;29769;42.178;24.742;2023-09-07T06:09:05;100096.81;;;24.77;100.00
44103;BME280;29769;42.178;24.742;2023-09-07T06:11:50;100095.16;;;24.62;100.00
44103;BME280;29769;42.178;24.742;2023-09-07T06:14:36;100103.59;;;24.70;100.00
44103;BME280;29769;42.178;24.742;2023-09-07T06:17:21;100112.44;;;24.85;100.00
44103;BME280;29769;42.178;24.742;2023-09-07T06:20:06;100119.00;;;25.08;100.00
44103;BME280;29769;42.178;24.742;2023-09-07T06:22:51;100124.91;;;25.65;100.00
44103;BME280;29769;42.178;24.742;2023-09-07T06:25:36;100116.38;;;26.69;100.00
44103;BME280;29769;42.178;24.742;2023-09-07T06:28:21;100121.00;;;27.50;100.00
44103;BME280;29769;42.178;24.742;2023-09-07T06:31:06;100123.16;;;27.79;100.00
44103;BME280;29769;42.178;24.742;2023-09-07T06:33:51;100119.94;;;27.74;100.00
44103;BME280;29769;42.178;24.742;2023-09-07T06:36:36;100117.81;;;28.56;100.00
44103;BME280;29769;42.178;24.742;2023-09-07T06:39:21;100114.94;;;29.11;100.00
44103;BME280;29769;42.178;24.742;2023-09-07T06:42:06;100117.66;;;29.00;100.00
44103;BME280;29769;42.178;24.742;2023-09-07T06:44:58;100116.69;;;30.15;100.00
44103;BME280;29769;42.178;24.742;2023-09-07T06:47:42;100110.91;;;30.38;100.00
44103;BME280;29769;42.178;24.742;2023-09-07T06:50:28;100118.88;;;29.90;100.00
44103;BME280;29769;42.178;24.742;2023-09-07T06:53:13;100110.44;;;30.24;100.00
44103;BME280;29769;42.178;24.742;2023-09-07T06:55:58;100113.69;;;30.48;100.00
44103;BME280;29769;42.178;24.742;2023-09-07T06:58:43;100117.72;;;30.23;100.00
44103;BME280;29769;42.178;24.742;2023-09-07T07:01:27;100121.59;;;30.21;100.00
44103;BME280;29769;42.178;24.742;2023-09-07T07:04:12;100115.09;;;29.82;100.00
44103;BME280;29769;42.178;24.742;2023-09-07T07:06:57;100117.25;;;29.37;100.00
44103;BME280;29769;42.178;24.742;2023-09-07T07:09:41;100111.72;;;29.38;100.00
44103;BME280;29769;42.178;24.742;2023-09-07T07:12:26;100110.84;;;28.85;100.00
44103;BME280;29769;42.178;24.742;2023-09-07T07:15:11;100110.22;;;27.94;100.00
44103;BME280;29769;42.178;24.742;2023-09-07T07:17:56;100110.38;;;27.70;100.00
44103;BME280;29769;42.178;24.742;2023-09-07T07:20:41;100110.25;;;26.91;100.00
44103;BME280;29769;42.178;24.742;2023-09-07T07:23:26;100101.63;;;27.56;100.00
44103;BME280;29769;42.178;24.742;2023-09-07T07:26:11;100115.28;;;27.88;100.00
44103;BME280;29769;42.178;24.742;2023-09-07T07:28:57;100111.00;;;28.18;100.00
44103;BME280;29769;42.178;24.742;2023-09-07T07:31:41;100115.66;;;27.83;100.00
44103;BME280;29769;42.178;24.742;2023-09-07T07:34:26;100116.72;;;28.47;100.00
44103;BME280;29769;42.178;24.742;2023-09-07T07:37:13;100116.06;;;28.66;100.00
44103;BME280;29769;42.178;24.742;2023-09-07T07:39:57;100124.47;;;28.52;100.00
44103;BME280;29769;42.178;24.742;2023-09-07T07:42:43;100113.06;;;27.70;100.00
44103;BME280;29769;42.178;24.742;2023-09-07T07:45:28;100126.34;;;26.92;100.00
44103;BME280;29769;42.178;24.742;2023-09-07T07:48:13;100120.66;;;27.19;100.00
44103;BME280;29769;42.178;24.742;2023-09-07T07:51:02;100114.94;;;27.35;100.00
44103;BME280;29769;42.178;24.742;2023-09-07T07:53:48;100124.69;;;27.49;100.00
44103;BME280;29769;42.178;24.742;2023-09-07T07:56:33;100132.97;;;27.92;100.00
44103;BME280;29769;42.178;24.742;2023-09-07T07:59:17;100132.47;;;27.64;100.00
44103;BME280;29769;42.178;24.742;2023-09-07T08:02:02;100132.50;;;27.29;100.00
44103;BME280;29769;42.178;24.742;2023-09-07T08:04:47;100131.22;;;27.22;100.00
44103;BME280;29769;42.178;24.742;2023-09-07T08:07:33;100128.31;;;26.78;100.00
44103;BME280;29769;42.178;24.742;2023-09-07T08:10:18;100125.16;;;27.08;100.00
44103;BME280;29769;42.178;24.742;2023-09-07T08:13:03;100126.59;;;27.35;100.00
44103;BME280;29769;42.178;24.742;2023-09-07T08:15:49;100130.56;;;27.42;100.00
44103;BME280;29769;42.178;24.742;2023-09-07T08:18:34;100132.00;;;27.70;100.00
44103;BME280;29769;42.178;24.742;2023-09-07T08:21:18;100124.25;;;27.20;100.00
44103;BME280;29769;42.178;24.742;2023-09-07T08:24:04;100114.75;;;27.49;100.00
44103;BME280;29769;42.178;24.742;2023-09-07T08:26:49;100117.47;;;28.05;100.00
44103;BME280;29769;42.178;24.742;2023-09-07T08:29:35;100116.53;;;28.82;98.68
44103;BME280;29769;42.178;24.742;2023-09-07T08:32:19;100121.44;;;29.41;93.31
44103;BME280;29769;42.178;24.742;2023-09-07T08:35:05;100108.44;;;30.16;90.09
44103;BME280;29769;42.178;24.742;2023-09-07T08:37:52;100113.84;;;30.66;88.21
44103;BME280;29769;42.178;24.742;2023-09-07T08:40:37;100106.53;;;30.47;76.57
44103;BME280;29769;42.178;24.742;2023-09-07T08:43:24;100107.13;;;30.60;66.84
44103;BME280;29769;42.178;24.742;2023-09-07T08:46:14;100112.41;;;30.22;68.51
44103;BME280;29769;42.178;24.742;2023-09-07T08:48:59;100106.91;;;29.72;66.95
44103;BME280;29769;42.178;24.742;2023-09-07T08:51:46;100096.94;;;30.03;65.36
44103;BME280;29769;42.178;24.742;2023-09-07T08:54:30;100103.84;;;30.07;63.16
44103;BME280;29769;42.178;24.742;2023-09-07T08:57:24;100097.03;;;31.01;59.06
44103;BME280;29769;42.178;24.742;2023-09-07T09:00:09;100090.84;;;30.79;56.21
44103;BME280;29769;42.178;24.742;2023-09-07T09:03:00;100089.31;;;31.71;52.55
44103;BME280;29769;42.178;24.742;2023-09-07T09:05:45;100087.53;;;32.27;50.25
44103;BME280;29769;42.178;24.742;2023-09-07T09:08:43;100080.84;;;32.84;49.16
44103;BME280;29769;42.178;24.742;2023-09-07T09:11:28;100077.13;;;32.57;50.64
44103;BME280;29769;42.178;24.742;2023-09-07T09:14:16;100081.03;;;32.10;45.56
44103;BME280;29769;42.178;24.742;2023-09-07T09:17:01;100073.34;;;31.40;48.71
44103;BME280;29769;42.178;24.742;2023-09-07T09:19:46;100073.75;;;31.54;46.87
44103;BME280;29769;42.178;24.742;2023-09-07T09:22:31;100072.88;;;31.54;46.61
44103;BME280;29769;42.178;24.742;2023-09-07T09:25:15;100071.91;;;31.45;47.60
44103;BME280;29769;42.178;24.742;2023-09-07T09:27:59;100067.44;;;31.07;49.14
44103;BME280;29769;42.178;24.742;2023-09-07T09:30:44;100065.53;;;30.69;49.41
44103;BME280;29769;42.178;24.742;2023-09-07T09:33:32;100069.75;;;30.33;51.65
44103;BME280;29769;42.178;24.742;2023-09-07T09:36:17;100067.38;;;30.50;50.89
44103;BME280;29769;42.178;24.742;2023-09-07T09:39:02;100062.84;;;30.88;51.46
44103;BME280;29769;42.178;24.742;2023-09-07T09:41:48;100053.81;;;30.88;51.32
44103;BME280;29769;42.178;24.742;2023-09-07T09:44:32;100059.22;;;31.36;49.93
44103;BME280;29769;42.178;24.742;2023-09-07T09:47:18;100051.47;;;31.41;51.08
44103;BME280;29769;42.178;24.742;2023-09-07T09:50:06;100050.19;;;31.35;51.78
44103;BME280;29769;42.178;24.742;2023-09-07T09:52:51;100047.03;;;31.40;49.37
44103;BME280;29769;42.178;24.742;2023-09-07T09:55:37;100046.47;;;31.56;49.25
44103;BME280;29769;42.178;24.742;2023-09-07T09:58:22;100057.44;;;31.54;48.24
44103;BME280;29769;42.178;24.742;2023-09-07T10:01:07;100045.44;;;32.21;45.88
44103;BME280;29769;42.178;24.742;2023-09-07T10:03:53;100036.59;;;33.51;41.40
44103;BME280;29769;42.178;24.742;2023-09-07T10:06:49;100034.69;;;35.02;37.26
44103;BME280;29769;42.178;24.742;2023-09-07T10:09:34;100025.78;;;37.11;34.07
44103;BME280;29769;42.178;24.742;2023-09-07T10:12:26;100020.06;;;36.44;35.06
44103;BME280;29769;42.178;24.742;2023-09-07T10:15:21;100025.28;;;36.62;34.76
44103;BME280;29769;42.178;24.742;2023-09-07T10:20:55;100012.94;;;37.84;32.36
44103;BME280;29769;42.178;24.742;2023-09-07T10:23:41;100016.63;;;40.24;29.79
44103;BME280;29769;42.178;24.742;2023-09-07T10:26:26;100019.72;;;39.73;28.92
44103;BME280;29769;42.178;24.742;2023-09-07T10:29:10;100015.72;;;39.41;28.26
44103;BME280;29769;42.178;24.742;2023-09-07T10:32:04;100014.66;;;38.15;29.58
44103;BME280;29769;42.178;24.742;2023-09-07T10:34:48;100018.94;;;38.03;30.42
44103;BME280;29769;42.178;24.742;2023-09-07T10:37:45;100004.06;;;37.97;29.79
44103;BME280;29769;42.178;24.742;2023-09-07T10:40:33;100011.59;;;38.60;29.34
44103;BME280;29769;42.178;24.742;2023-09-07T10:43:18;100001.63;;;38.02;30.08
44103;BME280;29769;42.178;24.742;2023-09-07T10:46:02;100007.44;;;37.26;30.83
44103;BME280;29769;42.178;24.742;2023-09-07T10:48:53;100011.34;;;37.75;31.39
44103;BME280;29769;42.178;24.742;2023-09-07T10:51:41;99998.56;;;37.97;30.26
44103;BME280;29769;42.178;24.742;2023-09-07T10:54:27;100006.34;;;38.44;29.45
44103;BME280;29769;42.178;24.742;2023-09-07T10:57:11;100008.31;;;38.50;30.19
44103;BME280;29769;42.178;24.742;2023-09-07T10:59:57;100003.28;;;38.18;29.62
44103;BME280;29769;42.178;24.742;2023-09-07T11:02:42;100009.19;;;37.71;29.99
44103;BME280;29769;42.178;24.742;2023-09-07T11:05:27;100000.41;;;39.32;29.10
44103;BME280;29769;42.178;24.742;2023-09-07T11:08:12;99990.63;;;37.88;30.53
44103;BME280;29769;42.178;24.742;2023-09-07T11:10:56;100000.06;;;37.26;31.22
44103;BME280;29769;42.178;24.742;2023-09-07T11:13:41;99996.16;;;36.38;31.55
44103;BME280;29769;42.178;24.742;2023-09-07T11:16:28;99994.38;;;37.28;30.55
44103;BME280;29769;42.178;24.742;2023-09-07T11:19:13;99983.56;;;36.74;31.19
44103;BME280;29769;42.178;24.742;2023-09-07T11:21:59;99981.72;;;37.71;30.65
44103;BME280;29769;42.178;24.742;2023-09-07T11:24:44;99982.28;;;39.17;28.51
44103;BME280;29769;42.178;24.742;2023-09-07T11:27:29;99983.66;;;38.57;28.92
44103;BME280;29769;42.178;24.742;2023-09-07T11:30:14;99974.16;;;38.59;28.61
44103;BME280;29769;42.178;24.742;2023-09-07T11:33:00;99972.75;;;36.95;30.39
44103;BME280;29769;42.178;24.742;2023-09-07T11:35:44;99965.22;;;36.52;31.40
44103;BME280;29769;42.178;24.742;2023-09-07T11:38:29;99954.44;;;35.50;32.72
44103;BME280;29769;42.178;24.742;2023-09-07T11:41:14;99953.38;;;34.88;33.92
44103;BME280;29769;42.178;24.742;2023-09-07T11:43:59;99960.00;;;33.70;35.14
44103;BME280;29769;42.178;24.742;2023-09-07T11:46:43;99946.16;;;32.86;37.20
44103;BME280;29769;42.178;24.742;2023-09-07T11:49:28;99945.66;;;32.12;37.91
44103;BME280;29769;42.178;24.742;2023-09-07T11:52:12;99937.94;;;31.53;39.95
44103;BME280;29769;42.178;24.742;2023-09-07T11:54:57;99926.03;;;31.63;39.27
44103;BME280;29769;42.178;24.742;2023-09-07T11:57:42;99923.59;;;31.88;38.67
44103;BME280;29769;42.178;24.742;2023-09-07T12:00:27;99918.53;;;33.33;36.54
44103;BME280;29769;42.178;24.742;2023-09-07T12:03:12;99916.81;;;34.32;34.18
44103;BME280;29769;42.178;24.742;2023-09-07T12:05:56;99910.78;;;35.09;33.60
44103;BME280;29769;42.178;24.742;2023-09-07T12:08:42;99911.94;;;35.78;31.68
44103;BME280;29769;42.178;24.742;2023-09-07T12:11:27;99910.66;;;34.87;33.15
44103;BME280;29769;42.178;24.742;2023-09-07T12:14:11;99915.94;;;34.96;33.27
44103;BME280;29769;42.178;24.742;2023-09-07T12:16:56;99902.94;;;35.61;32.12
44103;BME280;29769;42.178;24.742;2023-09-07T12:19:40;99895.00;;;35.36;32.41
44103;BME280;29769;42.178;24.742;2023-09-07T12:22:30;99902.66;;;35.87;31.91
44103;BME280;29769;42.178;24.742;2023-09-07T12:25:14;99895.28;;;35.49;32.00
44103;BME280;29769;42.178;24.742;2023-09-07T12:27:59;99902.00;;;34.75;32.97
44103;BME280;29769;42.178;24.742;2023-09-07T12:30:45;99898.41;;;34.42;33.15
44103;BME280;29769;42.178;24.742;2023-09-07T12:33:30;99901.38;;;33.48;34.61
44103;BME280;29769;42.178;24.742;2023-09-07T12:36:15;99898.66;;;32.45;36.57
44103;BME280;29769;42.178;24.742;2023-09-07T12:39:00;99884.84;;;31.58;38.01
44103;BME280;29769;42.178;24.742;2023-09-07T12:41:45;99884.31;;;30.71;39.74
44103;BME280;29769;42.178;24.742;2023-09-07T12:44:30;99891.06;;;30.19;41.42
44103;BME280;29769;42.178;24.742;2023-09-07T12:47:14;99896.75;;;30.26;41.21
44103;BME280;29769;42.178;24.742;2023-09-07T12:49:59;99901.00;;;29.80;43.26
44103;BME280;29769;42.178;24.742;2023-09-07T12:52:46;99892.16;;;29.29;44.20
44103;BME280;29769;42.178;24.742;2023-09-07T12:55:30;99890.16;;;29.00;44.89
44103;BME280;29769;42.178;24.742;2023-09-07T12:58:15;99889.47;;;29.08;45.83
44103;BME280;29769;42.178;24.742;2023-09-07T13:01:00;99895.41;;;29.23;44.66
44103;BME280;29769;42.178;24.742;2023-09-07T13:03:44;99904.50;;;29.42;44.20
44103;BME280;29769;42.178;24.742;2023-09-07T13:06:29;99900.53;;;29.56;44.24
44103;BME280;29769;42.178;24.742;2023-09-07T13:09:14;99900.78;;;29.43;43.98
44103;BME280;29769;42.178;24.742;2023-09-07T13:11:59;99888.31;;;29.31;43.45
44103;BME280;29769;42.178;24.742;2023-09-07T13:14:43;99894.38;;;29.14;44.13
44103;BME280;29769;42.178;24.742;2023-09-07T13:17:28;99893.38;;;29.15;43.62
44103;BME280;29769;42.178;24.742;2023-09-07T13:20:13;99904.91;;;29.17;43.10
44103;BME280;29769;42.178;24.742;2023-09-07T13:22:58;99895.22;;;29.45;43.59
44103;BME280;29769;42.178;24.742;2023-09-07T13:25:42;99898.50;;;29.18;44.24
44103;BME280;29769;42.178;24.742;2023-09-07T13:28:27;99889.22;;;29.11;44.20
44103;BME280;29769;42.178;24.742;2023-09-07T13:31:11;99888.06;;;29.44;43.34
44103;BME280;29769;42.178;24.742;2023-09-07T13:33:56;99895.84;;;29.77;45.07
44103;BME280;29769;42.178;24.742;2023-09-07T13:36:40;99891.28;;;29.68;44.70
44103;BME280;29769;42.178;24.742;2023-09-07T13:39:25;99891.84;;;29.72;44.82
44103;BME280;29769;42.178;24.742;2023-09-07T13:42:10;99897.84;;;29.85;44.64
44103;BME280;29769;42.178;24.742;2023-09-07T13:44:55;99895.28;;;29.74;45.08
44103;BME280;29769;42.178;24.742;2023-09-07T13:47:40;99889.69;;;29.56;45.88
44103;BME280;29769;42.178;24.742;2023-09-07T13:50:25;99895.72;;;29.69;45.20
44103;BME280;29769;42.178;24.742;2023-09-07T13:53:10;99890.22;;;30.19;43.58
44103;BME280;29769;42.178;24.742;2023-09-07T13:55:54;99890.22;;;30.19;43.41
44103;BME280;29769;42.178;24.742;2023-09-07T13:58:39;99891.00;;;29.81;44.48
44103;BME280;29769;42.178;24.742;2023-09-07T14:01:23;99882.28;;;29.28;44.83
44103;BME280;29769;42.178;24.742;2023-09-07T14:04:09;99876.88;;;29.28;45.01
44103;BME280;29769;42.178;24.742;2023-09-07T14:06:53;99886.28;;;29.24;45.51
44103;BME280;29769;42.178;24.742;2023-09-07T14:09:38;99879.72;;;29.26;46.34
44103;BME280;29769;42.178;24.742;2023-09-07T14:12:23;99879.34;;;29.00;47.23
44103;BME280;29769;42.178;24.742;2023-09-07T14:15:07;99873.75;;;28.92;46.73